createdAt,value
2022-10-22T00:00:18.785Z,97398.53
2022-10-22T00:02:45.484Z,97394.41
2022-10-22T00:05:12.147Z,97389.41
2022-10-22T00:07:39.158Z,97393.81
2022-10-22T00:10:05.999Z,97382.09
2022-10-22T00:12:32.607Z,97385.72
2022-10-22T00:14:59.234Z,97373.13
2022-10-22T00:17:25.858Z,97380.22
2022-10-22T00:19:52.468Z,97379.56
2022-10-22T00:22:19.072Z,97376.44
2022-10-22T00:24:45.681Z,97380.31
2022-10-22T00:27:12.304Z,97382.03
2022-10-22T00:29:38.934Z,97385.72
2022-10-22T00:32:05.551Z,97385.13
2022-10-22T00:34:32.144Z,97389.72
2022-10-22T00:36:58.778Z,97380.69
2022-10-22T00:39:25.391Z,97403.72
2022-10-22T00:41:52.009Z,97391.50
2022-10-22T00:44:18.623Z,97390.44
2022-10-22T00:46:45.204Z,97382.56
2022-10-22T00:49:11.824Z,97383.31
2022-10-22T00:51:38.434Z,97385.78
2022-10-22T00:54:05.020Z,97380.41
2022-10-22T00:56:31.655Z,97386.53
2022-10-22T00:58:58.308Z,97380.66
2022-10-22T01:01:25.032Z,97378.63
2022-10-22T01:03:51.734Z,97372.47
2022-10-22T01:06:18.559Z,97378.00
2022-10-22T01:08:45.189Z,97366.50
2022-10-22T01:11:11.796Z,97357.16
2022-10-22T01:13:38.412Z,97361.06
2022-10-22T01:16:05.015Z,97358.53
2022-10-22T01:18:31.626Z,97364.00
2022-10-22T01:20:58.245Z,97366.13
2022-10-22T01:23:26.930Z,97359.03
2022-10-22T01:25:53.720Z,97358.84
2022-10-22T01:28:20.355Z,97348.38
2022-10-22T01:30:46.974Z,97336.59
2022-10-22T01:33:13.556Z,97336.16
2022-10-22T01:35:40.175Z,97331.47
2022-10-22T01:38:06.772Z,97333.72
2022-10-22T01:40:33.359Z,97333.28
2022-10-22T01:42:59.983Z,97334.59
2022-10-22T01:45:26.585Z,97314.28
2022-10-22T01:47:53.209Z,97316.31
2022-10-22T01:50:19.813Z,97324.19
2022-10-22T01:52:46.432Z,97315.38
2022-10-22T01:55:13.151Z,97315.34
2022-10-22T01:57:39.949Z,97313.66
2022-10-22T02:00:06.728Z,97304.13
2022-10-22T02:02:33.367Z,97290.41
2022-10-22T02:05:00.004Z,97281.47
2022-10-22T02:07:26.591Z,97282.28
2022-10-22T02:09:53.181Z,97278.22
2022-10-22T02:12:19.789Z,97271.50
2022-10-22T02:14:46.381Z,97267.34
2022-10-22T02:17:13.053Z,97271.34
2022-10-22T02:19:39.656Z,97276.03
2022-10-22T02:22:06.306Z,97281.31
2022-10-22T02:24:32.915Z,97272.63
2022-10-22T02:26:59.534Z,97259.53
2022-10-22T02:29:26.120Z,97272.63
2022-10-22T02:31:52.744Z,97281.00
2022-10-22T02:34:19.365Z,97276.50
2022-10-22T02:36:48.179Z,97270.97
2022-10-22T02:41:48.584Z,97266.56
2022-10-22T02:44:15.195Z,97251.78
2022-10-22T02:46:41.836Z,97265.31
2022-10-22T02:49:08.487Z,97266.66
2022-10-22T02:51:35.291Z,97281.00
2022-10-22T02:54:01.887Z,97266.97
2022-10-22T02:56:28.515Z,97269.50
2022-10-22T02:58:55.103Z,97278.22
2022-10-22T03:01:21.797Z,97271.53
2022-10-22T03:03:48.505Z,97274.00
2022-10-22T03:06:15.163Z,97264.56
2022-10-22T03:08:41.956Z,97252.03
2022-10-22T03:11:08.644Z,97249.16
2022-10-22T03:13:35.271Z,97255.22
2022-10-22T03:16:01.857Z,97251.69
2022-10-22T03:18:28.464Z,97245.84
2022-10-22T03:20:55.116Z,97239.28
2022-10-22T03:23:21.711Z,97241.50
2022-10-22T03:25:48.411Z,97235.41
2022-10-22T03:28:15.046Z,97237.66
2022-10-22T03:30:41.653Z,97229.56
2022-10-22T03:33:08.243Z,97245.97
2022-10-22T03:35:34.861Z,97236.19
2022-10-22T03:38:01.466Z,97247.19
2022-10-22T03:40:28.077Z,97235.09
2022-10-22T03:42:54.667Z,97234.88
2022-10-22T03:45:21.281Z,97239.09
2022-10-22T03:47:47.879Z,97235.75
2022-10-22T03:50:14.465Z,97241.59
2022-10-22T03:52:41.126Z,97241.66
2022-10-22T03:55:07.728Z,97238.06
2022-10-22T03:57:34.384Z,97245.34
2022-10-22T04:00:00.980Z,97250.19
2022-10-22T04:02:27.625Z,97245.84
2022-10-22T04:04:54.273Z,97246.81
2022-10-22T04:07:20.868Z,97247.22
2022-10-22T04:09:47.479Z,97250.56
2022-10-22T04:12:14.084Z,97253.22
2022-10-22T04:14:40.700Z,97244.81
2022-10-22T04:17:07.298Z,97251.75
2022-10-22T04:19:33.912Z,97248.53
2022-10-22T04:22:00.490Z,97244.53
2022-10-22T04:24:27.099Z,97246.03
2022-10-22T04:26:53.750Z,97254.25
2022-10-22T04:29:21.576Z,97255.19
2022-10-22T04:31:49.421Z,97254.34
2022-10-22T04:34:16.036Z,97259.59
2022-10-22T04:36:42.673Z,97265.66
2022-10-22T04:39:11.696Z,97258.41
2022-10-22T04:41:38.309Z,97258.41
2022-10-22T04:44:04.895Z,97259.72
2022-10-22T04:46:32.744Z,97268.16
2022-10-22T04:49:01.769Z,97261.72
2022-10-22T04:51:28.379Z,97266.56
2022-10-22T04:53:54.987Z,97265.53
2022-10-22T04:56:22.868Z,97260.81
2022-10-22T04:58:49.468Z,97255.47
2022-10-22T05:01:16.387Z,97266.72
2022-10-22T05:03:45.100Z,97252.38
2022-10-22T05:08:43.307Z,97243.72
2022-10-22T05:11:10.242Z,97233.53
2022-10-22T05:13:36.836Z,97246.25
2022-10-22T05:16:03.467Z,97243.44
2022-10-22T05:18:32.223Z,97242.41
2022-10-22T05:20:58.956Z,97247.25
2022-10-22T05:23:26.696Z,97236.47
2022-10-22T05:25:53.313Z,97226.91
2022-10-22T05:28:19.945Z,97225.22
2022-10-22T05:30:48.522Z,97229.25
2022-10-22T05:33:23.286Z,97228.75
2022-10-22T05:35:50.788Z,97225.59
2022-10-22T05:38:17.673Z,97237.06
2022-10-22T05:40:44.280Z,97234.06
2022-10-22T05:43:11.112Z,97238.34
2022-10-22T05:45:37.839Z,97250.47
2022-10-22T05:48:04.442Z,97250.47
2022-10-22T05:53:11.710Z,97248.34
2022-10-22T05:55:39.468Z,97262.75
2022-10-22T05:58:09.152Z,97248.09
2022-10-22T06:00:35.879Z,97261.03
2022-10-22T06:03:04.763Z,97265.34
2022-10-22T06:05:31.383Z,97266.69
2022-10-22T06:07:57.962Z,97279.41
2022-10-22T06:10:24.602Z,97281.31
2022-10-22T06:12:51.224Z,97272.00
2022-10-22T06:15:17.836Z,97277.38
2022-10-22T06:17:44.443Z,97277.31
2022-10-22T06:20:11.077Z,97283.59
2022-10-22T06:22:37.798Z,97282.53
2022-10-22T06:25:04.548Z,97274.88
2022-10-22T06:27:31.241Z,97276.50
2022-10-22T06:29:57.887Z,97267.91
2022-10-22T06:32:24.503Z,97269.50
2022-10-22T06:34:51.114Z,97268.56
2022-10-22T06:37:17.814Z,97270.34
2022-10-22T06:39:44.429Z,97273.44
2022-10-22T06:42:11.071Z,97275.38
2022-10-22T06:44:37.684Z,97287.84
2022-10-22T06:47:04.308Z,97283.56
2022-10-22T06:49:30.891Z,97287.53
2022-10-22T06:51:57.508Z,97298.66
2022-10-22T06:54:24.125Z,97309.09
2022-10-22T06:56:50.717Z,97312.41
2022-10-22T06:59:17.344Z,97313.09
2022-10-22T07:01:44.026Z,97311.28
2022-10-22T07:04:10.679Z,97310.28
2022-10-22T07:06:37.297Z,97306.81
2022-10-22T07:09:03.971Z,97310.16
2022-10-22T07:11:30.667Z,97316.94
2022-10-22T07:13:57.256Z,97307.94
2022-10-22T07:16:28.062Z,97317.72
2022-10-22T07:18:57.781Z,97311.69
2022-10-22T07:21:24.420Z,97312.28
2022-10-22T07:23:51.028Z,97323.75
2022-10-22T07:26:17.634Z,97327.81
2022-10-22T07:28:44.260Z,97331.75
2022-10-22T07:31:10.901Z,97336.25
2022-10-22T07:33:37.697Z,97331.84
2022-10-22T07:36:04.565Z,97327.84
2022-10-22T07:38:31.145Z,97341.38
2022-10-22T07:40:57.786Z,97341.78
2022-10-22T07:43:24.398Z,97349.06
2022-10-22T07:45:51.006Z,97355.94
2022-10-22T07:48:17.625Z,97365.59
2022-10-22T07:53:15.776Z,97380.78
2022-10-22T07:55:42.372Z,97377.16
2022-10-22T07:58:08.991Z,97382.41
2022-10-22T08:00:35.617Z,97383.34
2022-10-22T08:03:02.213Z,97388.72
2022-10-22T08:05:28.853Z,97402.00
2022-10-22T08:07:55.451Z,97413.41
2022-10-22T08:10:22.089Z,97428.03
2022-10-22T08:12:48.705Z,97424.56
2022-10-22T08:15:15.296Z,97432.69
2022-10-22T08:17:42.255Z,97442.66
2022-10-22T08:20:09.291Z,97442.16
2022-10-22T08:22:35.899Z,97431.31
2022-10-22T08:25:02.875Z,97426.41
2022-10-22T08:27:29.510Z,97427.63
2022-10-22T08:29:56.092Z,97423.16
2022-10-22T08:32:22.728Z,97424.63
2022-10-22T08:34:49.375Z,97423.69
2022-10-22T08:37:16.040Z,97440.50
2022-10-22T08:39:42.665Z,97440.94
2022-10-22T08:42:09.278Z,97440.44
2022-10-22T08:44:35.887Z,97435.19
2022-10-22T08:47:02.477Z,97434.25
2022-10-22T08:49:29.087Z,97436.91
2022-10-22T08:51:55.684Z,97431.53
2022-10-22T08:54:22.303Z,97436.97
2022-10-22T08:56:48.934Z,97435.91
2022-10-22T08:59:15.531Z,97440.25
2022-10-22T09:01:42.180Z,97445.38
2022-10-22T09:04:08.779Z,97438.06
2022-10-22T09:06:35.969Z,97436.34
2022-10-22T09:09:02.686Z,97451.28
2022-10-22T09:11:29.471Z,97443.66
2022-10-22T09:13:56.066Z,97449.75
2022-10-22T09:19:06.667Z,97453.59
2022-10-22T09:21:33.423Z,97448.16
2022-10-22T09:24:00.078Z,97453.69
2022-10-22T09:26:26.708Z,97455.44
2022-10-22T09:28:53.299Z,97454.06
2022-10-22T09:31:19.907Z,97453.34
2022-10-22T09:33:46.508Z,97457.41
2022-10-22T09:36:13.118Z,97451.28
2022-10-22T09:38:39.726Z,97456.13
2022-10-22T09:41:06.344Z,97457.75
2022-10-22T09:43:32.972Z,97467.53
2022-10-22T09:45:59.559Z,97457.69
2022-10-22T09:48:26.180Z,97441.63
2022-10-22T09:50:52.790Z,97449.22
2022-10-22T09:53:19.415Z,97453.72
2022-10-22T09:55:46.130Z,97452.25
2022-10-22T09:58:12.736Z,97455.41
2022-10-22T10:00:39.350Z,97448.94
2022-10-22T10:03:06.003Z,97459.84
2022-10-22T10:05:32.636Z,97454.28
2022-10-22T10:07:59.254Z,97460.25
2022-10-22T10:10:25.847Z,97459.53
2022-10-22T10:12:52.464Z,97453.19
2022-10-22T10:15:19.065Z,97460.28
2022-10-22T10:17:45.704Z,97463.25
2022-10-22T10:20:13.207Z,97444.34
2022-10-22T10:22:40.256Z,97439.56
2022-10-22T10:25:07.136Z,97445.56
2022-10-22T10:27:33.809Z,97459.31
2022-10-22T10:30:00.408Z,97464.91
2022-10-22T10:32:27.063Z,97476.00
2022-10-22T10:34:53.660Z,97475.16
2022-10-22T10:37:20.279Z,97471.50
2022-10-22T10:39:46.878Z,97470.53
2022-10-22T10:42:13.491Z,97489.34
2022-10-22T10:44:40.138Z,97494.31
2022-10-22T10:47:06.765Z,97492.66
2022-10-22T10:49:33.388Z,97490.88
2022-10-22T10:51:59.993Z,97490.81
2022-10-22T10:54:26.689Z,97496.06
2022-10-22T10:56:53.304Z,97495.09
2022-10-22T10:59:19.893Z,97497.03
2022-10-22T11:01:46.600Z,97492.13
2022-10-22T11:04:13.251Z,97505.81
2022-10-22T11:06:39.861Z,97499.56
2022-10-22T11:09:06.571Z,97507.69
2022-10-22T11:11:33.253Z,97507.41
2022-10-22T11:13:59.863Z,97508.31
2022-10-22T11:16:26.448Z,97508.00
2022-10-22T11:18:53.043Z,97493.31
2022-10-22T11:21:19.673Z,97491.59
2022-10-22T11:23:46.298Z,97493.25
2022-10-22T11:26:12.895Z,97485.69
2022-10-22T11:28:39.539Z,97487.47
2022-10-22T11:31:06.160Z,97491.59
2022-10-22T11:33:32.784Z,97488.84
2022-10-22T11:35:59.368Z,97487.47
2022-10-22T11:38:25.979Z,97489.03
2022-10-22T11:40:52.587Z,97492.31
2022-10-22T11:43:19.213Z,97488.53
2022-10-22T11:45:45.829Z,97485.63
2022-10-22T11:48:12.452Z,97489.81
2022-10-22T11:50:39.075Z,97488.19
2022-10-22T11:53:05.751Z,97491.53
2022-10-22T11:55:32.371Z,97493.47
2022-10-22T11:57:59.010Z,97500.19
2022-10-22T12:00:25.594Z,97499.63
2022-10-22T12:02:52.200Z,97498.53
2022-10-22T12:05:18.815Z,97488.06
2022-10-22T12:07:45.436Z,97496.63
2022-10-22T12:10:13.834Z,97492.19
2022-10-22T12:12:43.035Z,97494.09
2022-10-22T12:15:09.730Z,97503.97
2022-10-22T12:17:36.340Z,97496.84
2022-10-22T12:20:03.209Z,97504.28
2022-10-22T12:22:29.946Z,97502.38
2022-10-22T12:24:56.560Z,97498.41
2022-10-22T12:27:23.368Z,97503.25
2022-10-22T12:29:50.028Z,97508.59
2022-10-22T12:32:16.650Z,97508.50
2022-10-22T12:34:43.274Z,97517.47
2022-10-22T12:37:09.906Z,97519.16
2022-10-22T12:39:36.519Z,97517.16
2022-10-22T12:42:03.128Z,97524.91
2022-10-22T12:44:29.746Z,97531.13
2022-10-22T12:46:57.163Z,97522.81
2022-10-22T12:49:23.934Z,97525.88
2022-10-22T12:51:50.530Z,97521.69
2022-10-22T12:54:17.147Z,97534.63
2022-10-22T12:56:43.770Z,97532.28
2022-10-22T12:59:10.392Z,97525.66
2022-10-22T13:01:37.011Z,97528.22
2022-10-22T13:04:03.612Z,97536.88
2022-10-22T13:06:30.223Z,97531.28
2022-10-22T13:08:56.857Z,97525.16
2022-10-22T13:11:23.471Z,97529.75
2022-10-22T13:13:50.083Z,97525.78
2022-10-22T13:16:16.676Z,97532.75
2022-10-22T13:18:43.269Z,97537.34
2022-10-22T13:21:09.891Z,97537.34
2022-10-22T13:23:36.529Z,97541.47
2022-10-22T13:26:03.136Z,97546.16
2022-10-22T13:28:29.754Z,97534.63
2022-10-22T13:30:56.416Z,97532.19
2022-10-22T13:33:23.071Z,97538.00
2022-10-22T13:35:49.704Z,97523.06
2022-10-22T13:38:16.305Z,97517.78
2022-10-22T13:40:42.899Z,97531.03
2022-10-22T13:43:09.551Z,97526.81
2022-10-22T13:45:36.177Z,97528.47
2022-10-22T13:48:02.816Z,97524.56
2022-10-22T13:50:29.439Z,97534.63
2022-10-22T13:52:56.051Z,97537.69
2022-10-22T13:55:22.670Z,97542.41
2022-10-22T13:57:49.263Z,97548.94
2022-10-22T14:00:15.891Z,97549.97
2022-10-22T14:02:42.856Z,97565.28
2022-10-22T14:05:09.647Z,97569.66
2022-10-22T14:07:36.240Z,97569.75
2022-10-22T14:10:02.881Z,97568.13
2022-10-22T14:12:29.471Z,97577.06
2022-10-22T14:17:27.583Z,97592.59
2022-10-22T14:19:54.178Z,97582.72
2022-10-22T14:22:20.789Z,97585.66
2022-10-22T14:24:47.399Z,97600.28
2022-10-22T14:27:14.022Z,97596.94
2022-10-22T14:29:40.664Z,97598.72
2022-10-22T14:32:07.284Z,97595.31
2022-10-22T14:34:33.897Z,97597.88
2022-10-22T14:37:00.492Z,97592.78
2022-10-22T14:39:27.129Z,97592.00
2022-10-22T14:41:53.803Z,97598.94
2022-10-22T14:44:20.388Z,97593.44
2022-10-22T14:46:47.007Z,97592.69
2022-10-22T14:49:13.637Z,97599.88
2022-10-22T14:51:40.250Z,97599.56
2022-10-22T14:54:06.868Z,97599.31
2022-10-22T14:56:33.492Z,97605.69
2022-10-22T14:59:00.132Z,97610.44
2022-10-22T15:01:26.764Z,97606.75
2022-10-22T15:03:53.415Z,97607.28
2022-10-22T15:06:20.006Z,97618.06
2022-10-22T15:08:46.698Z,97616.94
2022-10-22T15:11:13.375Z,97624.34
2022-10-22T15:13:40.002Z,97617.41
2022-10-22T15:16:06.631Z,97625.28
2022-10-22T15:18:33.220Z,97619.38
2022-10-22T15:20:59.823Z,97619.03
2022-10-22T15:23:26.472Z,97611.84
2022-10-22T15:25:53.082Z,97595.41
2022-10-22T15:28:19.683Z,97602.63
2022-10-22T15:30:46.296Z,97610.75
2022-10-22T15:33:12.900Z,97614.78
2022-10-22T15:38:23.979Z,97618.34
2022-10-22T15:40:51.457Z,97620.66
2022-10-22T15:43:18.059Z,97610.09
2022-10-22T15:45:44.646Z,97596.19
2022-10-22T15:48:13.576Z,97603.25
2022-10-22T15:50:42.047Z,97605.59
2022-10-22T15:53:08.637Z,97620.78
2022-10-22T15:55:35.754Z,97616.25
2022-10-22T15:58:03.583Z,97620.63
2022-10-22T16:00:30.976Z,97638.16
2022-10-22T16:02:57.584Z,97645.69
2022-10-22T16:05:24.182Z,97651.13
2022-10-22T16:07:50.815Z,97655.63
2022-10-22T16:10:17.408Z,97665.63
2022-10-22T16:12:44.340Z,97671.09
2022-10-22T16:15:11.132Z,97673.63
2022-10-22T16:17:38.119Z,97687.63
2022-10-22T16:20:05.016Z,97701.53
2022-10-22T16:22:31.666Z,97708.38
2022-10-22T16:24:58.281Z,97709.66
2022-10-22T16:27:24.959Z,97711.38
2022-10-22T16:29:59.752Z,97712.88
2022-10-22T16:32:26.567Z,97707.78
2022-10-22T16:34:53.206Z,97719.94
2022-10-22T16:37:20.861Z,97720.38
2022-10-22T16:39:47.462Z,97726.63
2022-10-22T16:42:14.125Z,97721.56
2022-10-22T16:44:40.786Z,97721.19
2022-10-22T16:47:07.408Z,97727.66
2022-10-22T16:49:34.019Z,97736.66
2022-10-22T16:52:00.614Z,97740.78
2022-10-22T16:54:27.278Z,97739.09
2022-10-22T16:56:53.918Z,97747.31
2022-10-22T16:59:20.540Z,97744.13
2022-10-22T17:01:47.208Z,97754.59
2022-10-22T17:04:13.818Z,97751.31
2022-10-22T17:06:40.441Z,97745.19
2022-10-22T17:09:07.147Z,97750.28
2022-10-22T17:11:33.790Z,97750.03
2022-10-22T17:14:00.409Z,97751.06
2022-10-22T17:16:27.020Z,97753.56
2022-10-22T17:18:53.648Z,97750.78
2022-10-22T17:21:20.257Z,97760.69
2022-10-22T17:23:46.991Z,97759.94
2022-10-22T17:26:13.614Z,97758.63
2022-10-22T17:28:40.238Z,97761.66
2022-10-22T17:31:06.856Z,97774.91
2022-10-22T17:33:33.479Z,97773.84
2022-10-22T17:36:00.123Z,97766.25
2022-10-22T17:38:26.722Z,97769.50
2022-10-22T17:40:53.340Z,97773.28
2022-10-22T17:43:20.008Z,97772.66
2022-10-22T17:45:46.620Z,97780.75
2022-10-22T17:48:13.210Z,97785.44
2022-10-22T17:50:39.814Z,97782.56
2022-10-22T17:53:06.439Z,97782.34
2022-10-22T17:55:33.041Z,97794.88
2022-10-22T17:57:59.659Z,97801.88
2022-10-22T18:00:26.277Z,97803.44
2022-10-22T18:02:52.871Z,97798.47
2022-10-22T18:05:19.508Z,97800.94
2022-10-22T18:07:47.216Z,97804.59
2022-10-22T18:10:13.808Z,97802.97
2022-10-22T18:12:40.671Z,97800.97
2022-10-22T18:15:07.430Z,97810.63
2022-10-22T18:17:35.926Z,97803.22
2022-10-22T18:20:05.378Z,97802.78
2022-10-22T18:22:31.971Z,97801.56
2022-10-22T18:24:58.861Z,97809.16
2022-10-22T18:27:25.475Z,97810.75
2022-10-22T18:29:52.255Z,97810.09
2022-10-22T18:32:18.888Z,97808.78
2022-10-22T18:34:45.549Z,97816.97
2022-10-22T18:37:12.171Z,97817.50
2022-10-22T18:42:23.948Z,97820.44
2022-10-22T18:44:52.075Z,97826.13
2022-10-22T18:47:18.696Z,97831.31
2022-10-22T18:49:45.349Z,97836.63
2022-10-22T18:52:11.956Z,97838.41
2022-10-22T18:54:38.577Z,97835.34
2022-10-22T18:57:05.197Z,97840.88
2022-10-22T18:59:31.802Z,97842.31
2022-10-22T19:01:58.425Z,97850.50
2022-10-22T19:04:25.046Z,97845.38
2022-10-22T19:06:51.693Z,97849.47
2022-10-22T19:09:18.344Z,97849.69
2022-10-22T19:11:45.034Z,97849.31
2022-10-22T19:14:11.684Z,97858.75
2022-10-22T19:16:38.307Z,97863.44
2022-10-22T19:19:04.961Z,97865.72
2022-10-22T19:21:31.564Z,97865.06
2022-10-22T19:23:58.193Z,97862.47
2022-10-22T19:26:24.812Z,97864.94
2022-10-22T19:28:51.450Z,97865.34
2022-10-22T19:31:18.049Z,97869.06
2022-10-22T19:33:44.650Z,97873.75
2022-10-22T19:36:11.296Z,97873.53
2022-10-22T19:38:37.890Z,97871.84
2022-10-22T19:41:04.536Z,97876.97
2022-10-22T19:43:31.183Z,97886.56
2022-10-22T19:45:57.846Z,97884.94
2022-10-22T19:48:24.497Z,97887.81
2022-10-22T19:50:51.085Z,97887.81
2022-10-22T19:53:17.695Z,97889.44
2022-10-22T19:55:44.309Z,97884.56
2022-10-22T19:58:10.939Z,97891.09
2022-10-22T20:00:37.595Z,97895.75
2022-10-22T20:03:04.194Z,97898.63
2022-10-22T20:05:30.826Z,97896.16
2022-10-22T20:07:57.429Z,97905.34
2022-10-22T20:10:24.063Z,97898.00
2022-10-22T20:12:50.680Z,97913.69
2022-10-22T20:15:17.275Z,97904.50
2022-10-22T20:17:44.097Z,97905.31
2022-10-22T20:20:10.903Z,97907.78
2022-10-22T20:22:37.513Z,97902.06
2022-10-22T20:25:04.133Z,97910.00
2022-10-22T20:27:30.728Z,97908.75
2022-10-22T20:29:57.339Z,97908.56
2022-10-22T20:32:23.984Z,97920.56
2022-10-22T20:34:50.611Z,97922.84
2022-10-22T20:37:17.200Z,97913.50
2022-10-22T20:39:43.813Z,97918.53
2022-10-22T20:42:10.465Z,97921.59
2022-10-22T20:44:37.108Z,97919.56
2022-10-22T20:47:03.732Z,97916.31
2022-10-22T20:49:30.399Z,97919.16
2022-10-22T20:51:57.010Z,97926.91
2022-10-22T20:54:23.667Z,97927.69
2022-10-22T20:56:50.330Z,97924.06
2022-10-22T20:59:16.970Z,97928.34
2022-10-22T21:01:43.595Z,97936.00
2022-10-22T21:04:10.178Z,97930.84
2022-10-22T21:06:36.799Z,97932.41
2022-10-22T21:09:03.467Z,97934.06
2022-10-22T21:11:30.131Z,97932.25
2022-10-22T21:13:56.726Z,97938.22
2022-10-22T21:16:23.327Z,97938.22
2022-10-22T21:18:49.952Z,97936.84
2022-10-22T21:21:16.537Z,97939.50
2022-10-22T21:23:43.147Z,97932.53
2022-10-22T21:26:09.848Z,97944.72
2022-10-22T21:28:36.440Z,97938.53
2022-10-22T21:31:03.073Z,97939.19
2022-10-22T21:33:29.663Z,97948.66
2022-10-22T21:35:56.301Z,97944.31
2022-10-22T21:38:22.919Z,97937.38
2022-10-22T21:40:49.526Z,97942.44
2022-10-22T21:43:16.125Z,97945.59
2022-10-22T21:45:42.714Z,97943.31
2022-10-22T21:48:09.334Z,97947.38
2022-10-22T21:50:35.924Z,97939.03
2022-10-22T21:53:02.531Z,97948.81
2022-10-22T21:55:29.120Z,97958.59
2022-10-22T21:57:55.739Z,97963.34
2022-10-22T22:00:22.332Z,97954.38
2022-10-22T22:02:48.974Z,97963.75
2022-10-22T22:05:15.565Z,97966.50
2022-10-22T22:07:42.155Z,97959.66
2022-10-22T22:10:08.761Z,97955.22
2022-10-22T22:12:35.390Z,97957.22
2022-10-22T22:15:02.056Z,97961.09
2022-10-22T22:17:28.714Z,97958.06
2022-10-22T22:19:55.340Z,97953.81
2022-10-22T22:22:21.925Z,97950.59
2022-10-22T22:24:48.537Z,97936.72
2022-10-22T22:27:15.196Z,97941.03
2022-10-22T22:29:41.810Z,97940.00
2022-10-22T22:32:08.425Z,97945.31
2022-10-22T22:34:35.053Z,97941.59
2022-10-22T22:37:01.684Z,97954.28
2022-10-22T22:39:28.268Z,97945.47
2022-10-22T22:41:54.895Z,97944.50
2022-10-22T22:44:21.485Z,97944.47
2022-10-22T22:46:48.237Z,97949.56
2022-10-22T22:49:14.885Z,97945.84
2022-10-22T22:51:41.483Z,97950.50
2022-10-22T22:54:08.075Z,97942.91
2022-10-22T22:56:34.722Z,97947.56
2022-10-22T22:59:01.346Z,97951.47
2022-10-22T23:01:28.050Z,97951.69
2022-10-22T23:03:54.697Z,97948.97
2022-10-22T23:06:21.280Z,97948.50
2022-10-22T23:08:47.950Z,97951.97
2022-10-22T23:11:14.618Z,97950.19
2022-10-22T23:13:41.237Z,97947.31
2022-10-22T23:16:07.856Z,97949.94
2022-10-22T23:18:34.456Z,97946.09
2022-10-22T23:21:01.097Z,97935.50
2022-10-22T23:23:27.718Z,97938.72
2022-10-22T23:25:54.369Z,97928.75
2022-10-22T23:28:21.030Z,97933.81
2022-10-22T23:30:47.674Z,97927.75
2022-10-22T23:33:14.290Z,97926.31
2022-10-22T23:35:40.884Z,97927.03
2022-10-22T23:38:07.503Z,97922.91
2022-10-22T23:40:34.138Z,97917.28
2022-10-22T23:43:00.765Z,97912.28
2022-10-22T23:45:27.381Z,97913.72
2022-10-22T23:47:53.997Z,97914.50
2022-10-22T23:50:20.617Z,97918.34
2022-10-22T23:52:47.207Z,97927.06
2022-10-22T23:55:13.823Z,97928.38
2022-10-22T23:57:40.413Z,97934.22
